Time;durP1;ratioP1;P1;durP2;ratioP2;P2;SDS_P1;SDS_P2;PMS_P1;PMS_P2;Temp;Humidity;BMP_temperature;BMP_pressure;BME280_temperature;BME280_humidity;BME280_pressure;Samples;Min_cycle;Max_cycle;Signal;HPM_P1;HPM_P2
2022/06/07 00:00:51;;;;;;;4.53;2.10;;;14.40;99.90;;;;;;5118693;27;20236;-76
2022/06/07 00:03:19;;;;;;;4.40;2.40;;;14.40;99.90;;;;;;5126035;27;20227;-76
2022/06/07 00:05:46;;;;;;;7.50;2.60;;;14.40;99.90;;;;;;5125495;27;20281;-76
2022/06/07 00:08:16;;;;;;;6.27;2.93;;;14.50;99.90;;;;;;5124033;27;20258;-76
2022/06/07 00:10:45;;;;;;;8.40;2.70;;;14.50;99.90;;;;;;5126014;27;20213;-76
2022/06/07 00:13:12;;;;;;;4.23;2.37;;;14.50;99.90;;;;;;5117847;27;20225;-76
2022/06/07 00:15:39;;;;;;;7.53;2.60;;;14.50;99.90;;;;;;5116338;27;20284;-76
2022/06/07 00:18:07;;;;;;;6.40;2.57;;;14.40;99.90;;;;;;5135141;27;20229;-76
2022/06/07 00:20:35;;;;;;;6.90;2.37;;;14.40;99.90;;;;;;5124127;27;20668;-76
2022/06/07 00:23:02;;;;;;;4.60;2.20;;;14.40;99.90;;;;;;5114424;27;20635;-76
2022/06/07 00:25:29;;;;;;;7.97;2.43;;;14.30;99.90;;;;;;5135084;27;20193;-76
2022/06/07 00:27:58;;;;;;;7.17;2.50;;;14.30;99.90;;;;;;5126811;27;20233;-76
2022/06/07 00:30:25;;;;;;;7.43;2.27;;;14.20;99.90;;;;;;5114491;28;20217;-76
2022/06/07 00:32:52;;;;;;;3.50;1.93;;;14.20;99.90;;;;;;5116654;27;20277;-76
2022/06/07 00:35:19;;;;;;;9.17;2.30;;;14.10;99.90;;;;;;5128456;27;20285;-76
2022/06/07 00:37:46;;;;;;;5.33;2.20;;;14.10;99.90;;;;;;5130605;27;20236;-76
2022/06/07 00:40:14;;;;;;;5.63;2.23;;;14.00;99.90;;;;;;5119072;27;20285;-75
2022/06/07 00:42:41;;;;;;;6.43;2.37;;;13.90;99.90;;;;;;5128223;27;20232;-76
2022/06/07 00:45:13;;;;;;;6.20;2.57;;;13.90;99.90;;;;;;5131258;27;20715;-76
2022/06/07 00:47:40;;;;;;;8.50;2.30;;;13.80;99.90;;;;;;5125399;27;20209;-76
2022/06/07 00:50:13;;;;;;;5.73;2.20;;;13.80;99.90;;;;;;5114273;28;20260;-76
2022/06/07 00:52:40;;;;;;;5.53;2.40;;;13.80;99.90;;;;;;5113794;28;20236;-76
2022/06/07 00:55:08;;;;;;;8.47;2.40;;;13.70;99.90;;;;;;5113914;28;20229;-76
2022/06/07 00:57:36;;;;;;;8.70;2.47;;;13.70;99.90;;;;;;5120418;27;20229;-76
2022/06/07 01:00:06;;;;;;;5.50;2.40;;;13.60;99.90;;;;;;5113714;28;20226;-76
2022/06/07 01:02:34;;;;;;;6.00;2.40;;;13.50;99.90;;;;;;5122218;27;20312;-76
2022/06/07 01:05:02;;;;;;;5.60;2.53;;;13.50;99.90;;;;;;5110595;28;20293;-76
2022/06/07 01:12:58;;;;;;;6.80;2.67;;;13.50;99.90;;;;;;5115023;27;20193;-76
2022/06/07 01:15:25;;;;;;;6.30;3.00;;;13.50;99.90;;;;;;5116200;27;20711;-76
2022/06/07 01:17:53;;;;;;;6.40;2.47;;;13.50;99.90;;;;;;5133328;27;20264;-76
2022/06/07 01:20:20;;;;;;;9.43;3.03;;;13.50;99.90;;;;;;5133999;27;20275;-76
2022/06/07 01:22:49;;;;;;;6.23;2.33;;;13.50;99.90;;;;;;5134005;27;20229;-76
2022/06/07 01:25:16;;;;;;;9.90;3.10;;;13.50;99.90;;;;;;5134005;27;20284;-76
2022/06/07 01:27:43;;;;;;;9.43;2.70;;;13.50;99.90;;;;;;5112916;27;20229;-76
2022/06/07 01:30:11;;;;;;;6.63;2.80;;;13.50;99.90;;;;;;5123075;27;20252;-76
2022/06/07 01:32:38;;;;;;;8.20;3.20;;;13.50;99.90;;;;;;5117093;27;20240;-76
2022/06/07 01:35:05;;;;;;;8.80;3.43;;;13.40;99.90;;;;;;5121920;27;20231;-76
2022/06/07 01:37:32;;;;;;;8.73;3.53;;;13.50;99.90;;;;;;5101350;27;20206;-76
2022/06/07 01:43:00;;;;;;;11.20;3.70;;;13.40;99.90;;;;;;5110169;28;20274;-76
2022/06/07 01:45:27;;;;;;;9.33;3.17;;;13.30;99.90;;;;;;5096241;28;20272;-76
2022/06/07 01:47:54;;;;;;;8.10;3.37;;;13.30;99.90;;;;;;5095925;28;20289;-76
2022/06/07 01:50:21;;;;;;;12.90;3.20;;;13.20;99.90;;;;;;5097836;28;20697;-76
2022/06/07 01:52:48;;;;;;;12.17;3.87;;;13.20;99.90;;;;;;5102927;28;20244;-75
2022/06/07 01:55:16;;;;;;;11.47;3.50;;;13.20;99.90;;;;;;5097622;28;20230;-76
2022/06/07 01:57:43;;;;;;;8.77;3.80;;;13.20;99.90;;;;;;5103676;28;20232;-76
2022/06/07 02:00:11;;;;;;;8.60;3.53;;;13.20;99.90;;;;;;5094832;28;20198;-76
2022/06/07 02:02:38;;;;;;;13.67;4.00;;;13.20;99.90;;;;;;5104973;28;20645;-76
2022/06/07 02:05:05;;;;;;;11.73;3.57;;;13.20;99.90;;;;;;5103402;28;20209;-76
2022/06/07 02:07:32;;;;;;;7.47;3.40;;;13.10;99.90;;;;;;5089684;28;20229;-76
2022/06/07 02:09:59;;;;;;;13.97;4.00;;;13.10;99.90;;;;;;5088799;28;20641;-76
2022/06/07 02:12:29;;;;;;;9.70;3.60;;;13.10;99.90;;;;;;5089472;28;20293;-76
2022/06/07 02:14:56;;;;;;;9.77;3.17;;;13.10;99.90;;;;;;5092069;28;20289;-76
2022/06/07 02:17:22;;;;;;;10.13;4.00;;;13.10;99.90;;;;;;5099210;27;20282;-76
2022/06/07 02:19:49;;;;;;;13.57;3.67;;;13.10;99.90;;;;;;5125275;27;20248;-76
2022/06/07 02:22:16;;;;;;;11.83;3.83;;;13.10;99.90;;;;;;5112711;28;20236;-76
2022/06/07 02:24:43;;;;;;;9.33;3.60;;;13.10;99.90;;;;;;5120566;27;20224;-76
2022/06/07 02:27:14;;;;;;;15.23;3.83;;;13.10;99.90;;;;;;5126324;27;20707;-76
2022/06/07 02:29:45;;;;;;;15.20;3.90;;;13.10;99.90;;;;;;5129964;27;20298;-75
2022/06/07 02:32:19;;;;;;;12.77;3.97;;;13.10;99.90;;;;;;5113336;27;20209;-76
2022/06/07 02:34:51;;;;;;;12.50;3.53;;;13.10;99.90;;;;;;5132857;27;20763;-76
2022/06/07 02:37:19;;;;;;;10.43;3.77;;;13.10;99.90;;;;;;5120850;27;20209;-76
2022/06/07 02:39:46;;;;;;;11.77;4.50;;;13.10;99.90;;;;;;5111799;28;20327;-75
2022/06/07 02:42:16;;;;;;;12.80;3.70;;;13.10;99.90;;;;;;5112567;28;20281;-76
2022/06/07 02:44:45;;;;;;;9.90;3.67;;;13.00;99.90;;;;;;5103679;28;20222;-76
2022/06/07 02:47:12;;;;;;;10.03;3.63;;;13.00;99.90;;;;;;5092408;28;20302;-76
2022/06/07 02:49:39;;;;;;;14.33;3.77;;;13.00;99.90;;;;;;5094602;28;20300;-76
2022/06/07 02:52:07;;;;;;;11.77;3.60;;;13.00;99.90;;;;;;5100940;28;20316;-76
2022/06/07 02:54:35;;;;;;;11.50;3.67;;;13.00;99.90;;;;;;5091512;28;20194;-76
2022/06/07 02:57:01;;;;;;;14.37;4.40;;;13.00;99.90;;;;;;5113920;27;20281;-76
2022/06/07 02:59:28;;;;;;;11.10;3.70;;;12.90;99.90;;;;;;5127731;27;20285;-76
2022/06/07 03:01:57;;;;;;;15.13;3.97;;;13.00;99.90;;;;;;5112173;28;20210;-76
2022/06/07 03:04:24;;;;;;;13.23;4.13;;;13.00;99.90;;;;;;5112063;28;20293;-76
2022/06/07 03:06:51;;;;;;;13.60;3.70;;;12.90;99.90;;;;;;5122139;27;20284;-76
2022/06/07 03:09:18;;;;;;;10.37;3.70;;;12.90;99.90;;;;;;5116124;28;20285;-76
2022/06/07 03:11:44;;;;;;;15.27;3.73;;;12.90;99.90;;;;;;5112550;28;20661;-76
2022/06/07 03:14:12;;;;;;;16.17;4.37;;;12.90;99.90;;;;;;5132404;27;20609;-76
2022/06/07 03:16:39;;;;;;;14.53;4.33;;;12.90;99.90;;;;;;5123819;27;20329;-76
2022/06/07 03:19:08;;;;;;;13.80;3.83;;;12.90;99.90;;;;;;5120690;28;20292;-76
2022/06/07 03:21:35;;;;;;;11.60;4.20;;;13.00;99.90;;;;;;5132582;27;20609;-76
2022/06/07 03:24:02;;;;;;;12.97;3.83;;;13.00;99.90;;;;;;5132246;27;20238;-76
2022/06/07 03:26:29;;;;;;;10.50;4.40;;;13.00;99.90;;;;;;5113526;27;20277;-76
2022/06/07 03:28:56;;;;;;;14.97;4.27;;;13.00;99.90;;;;;;5111875;28;20198;-76
2022/06/07 03:31:23;;;;;;;11.00;4.17;;;13.00;99.90;;;;;;5110628;28;20260;-75
2022/06/07 03:33:50;;;;;;;13.67;4.07;;;13.00;99.90;;;;;;5117751;28;20281;-76
2022/06/07 03:36:22;;;;;;;10.30;4.00;;;13.10;99.90;;;;;;5092156;28;20644;-76
2022/06/07 03:38:50;;;;;;;10.63;3.97;;;13.10;99.90;;;;;;5125660;27;20190;-76
2022/06/07 03:41:19;;;;;;;16.47;4.43;;;13.10;99.90;;;;;;5124722;27;20650;-76
2022/06/07 03:43:46;;;;;;;14.60;4.30;;;13.10;99.90;;;;;;5129553;27;20696;-76
2022/06/07 03:46:15;;;;;;;10.10;3.80;;;13.10;99.90;;;;;;5115917;28;20201;-76
2022/06/07 03:48:42;;;;;;;16.67;4.23;;;13.10;99.90;;;;;;5116715;27;20331;-76
2022/06/07 03:51:09;;;;;;;14.30;4.30;;;13.10;99.90;;;;;;5114240;28;20249;-76
2022/06/07 03:53:38;;;;;;;16.90;4.57;;;13.10;99.90;;;;;;5126312;27;20279;-76
2022/06/07 03:56:06;;;;;;;12.70;4.33;;;13.10;99.90;;;;;;5123508;27;20352;-76
2022/06/07 03:58:34;;;;;;;13.53;4.00;;;13.10;99.90;;;;;;5115087;27;20202;-77
2022/06/07 04:01:02;;;;;;;19.43;4.73;;;13.10;99.90;;;;;;5114957;27;20193;-76
2022/06/07 04:03:29;;;;;;;10.53;4.10;;;13.10;99.90;;;;;;5115303;27;20201;-76
2022/06/07 04:05:57;;;;;;;14.90;3.97;;;13.20;99.90;;;;;;5122831;27;20232;-76
2022/06/07 04:08:25;;;;;;;16.97;4.47;;;13.10;99.90;;;;;;5118796;27;20273;-76
2022/06/07 04:10:56;;;;;;;10.17;3.93;;;13.20;99.90;;;;;;5114819;28;20229;-76
2022/06/07 04:13:25;;;;;;;13.00;4.10;;;13.20;99.90;;;;;;5115583;27;20222;-76
2022/06/07 04:15:52;;;;;;;14.70;4.23;;;13.20;99.90;;;;;;5114483;28;20234;-76
2022/06/07 04:18:20;;;;;;;14.27;4.17;;;13.20;99.90;;;;;;5115162;28;20204;-76
2022/06/07 04:20:47;;;;;;;15.37;4.40;;;13.20;99.90;;;;;;5107080;28;20285;-76
2022/06/07 04:23:16;;;;;;;12.10;3.63;;;13.20;99.90;;;;;;5127822;27;20624;-76
2022/06/07 04:25:44;;;;;;;9.97;3.77;;;13.20;99.90;;;;;;5114954;28;20198;-76
2022/06/07 04:28:13;;;;;;;13.13;3.97;;;13.20;99.90;;;;;;5114967;28;20646;-76
2022/06/07 04:30:43;;;;;;;10.90;3.87;;;13.20;99.90;;;;;;5117248;27;20260;-76
2022/06/07 04:33:10;;;;;;;14.10;4.20;;;13.20;99.90;;;;;;5124009;27;20248;-76
2022/06/07 04:35:37;;;;;;;11.90;4.07;;;13.20;99.90;;;;;;5129812;27;20242;-76
2022/06/07 04:38:05;;;;;;;13.33;3.50;;;13.20;99.90;;;;;;5116439;27;20229;-76
2022/06/07 04:40:32;;;;;;;11.47;4.10;;;13.30;99.90;;;;;;5124835;27;20303;-76
2022/06/07 04:42:58;;;;;;;7.77;3.73;;;13.30;99.90;;;;;;5118228;27;20240;-76
2022/06/07 04:45:27;;;;;;;12.20;4.67;;;13.20;99.90;;;;;;5131677;27;20259;-76
2022/06/07 04:47:54;;;;;;;13.00;3.70;;;13.30;99.90;;;;;;5124034;27;20220;-75
2022/06/07 04:50:21;;;;;;;12.30;3.73;;;13.20;99.90;;;;;;5113097;28;20294;-76
2022/06/07 04:52:48;;;;;;;11.00;3.17;;;13.20;99.90;;;;;;5114148;27;20237;-76
2022/06/07 04:55:16;;;;;;;11.57;3.20;;;13.20;99.90;;;;;;5114091;28;20281;-76
2022/06/07 04:57:43;;;;;;;10.73;3.60;;;13.20;99.90;;;;;;5114316;28;20283;-76
2022/06/07 05:00:14;;;;;;;11.43;3.63;;;13.20;99.90;;;;;;5113947;28;20201;-76
2022/06/07 05:02:43;;;;;;;12.40;3.40;;;13.20;99.90;;;;;;5128456;27;20197;-76
2022/06/07 05:05:11;;;;;;;12.93;3.80;;;13.30;99.90;;;;;;5131543;27;20232;-76
2022/06/07 05:07:39;;;;;;;11.40;3.73;;;13.30;99.90;;;;;;5108459;27;20205;-76
2022/06/07 05:10:08;;;;;;;12.37;3.63;;;13.30;99.90;;;;;;5130207;27;20296;-77
2022/06/07 05:12:35;;;;;;;13.57;3.57;;;13.30;99.90;;;;;;5134014;27;20224;-77
2022/06/07 05:15:03;;;;;;;11.00;3.60;;;13.30;99.90;;;;;;5119230;27;20276;-77
2022/06/07 05:17:31;;;;;;;10.73;4.03;;;13.40;99.90;;;;;;5119636;27;20316;-77
2022/06/07 05:19:59;;;;;;;12.50;3.57;;;13.40;99.90;;;;;;5113195;28;20205;-77
2022/06/07 05:22:28;;;;;;;8.47;3.53;;;13.50;99.90;;;;;;5113787;28;20285;-76
2022/06/07 05:24:55;;;;;;;13.57;4.20;;;13.50;99.90;;;;;;5113774;28;20204;-76
2022/06/07 05:27:24;;;;;;;13.17;3.77;;;13.50;99.90;;;;;;5123884;27;20301;-77
2022/06/07 05:29:53;;;;;;;8.67;3.57;;;13.60;99.90;;;;;;5123238;27;20197;-77
2022/06/07 05:32:21;;;;;;;17.10;3.93;;;13.60;99.90;;;;;;5123731;27;20313;-77
2022/06/07 05:34:49;;;;;;;13.80;3.90;;;13.70;99.90;;;;;;5123364;27;20337;-77
2022/06/07 05:37:19;;;;;;;12.07;4.20;;;13.80;99.90;;;;;;5108178;27;20828;-77
2022/06/07 05:39:47;;;;;;;12.53;3.63;;;13.90;99.90;;;;;;5111539;27;20292;-77
2022/06/07 05:42:16;;;;;;;8.67;3.50;;;13.90;99.90;;;;;;5109665;27;20226;-78
2022/06/07 05:44:43;;;;;;;12.00;3.77;;;14.10;99.90;;;;;;5111318;27;20225;-78
2022/06/07 05:47:10;;;;;;;9.73;3.43;;;14.10;99.90;;;;;;5126966;27;20242;-77
2022/06/07 05:49:37;;;;;;;12.43;3.47;;;14.20;99.90;;;;;;5083386;27;20284;-77
2022/06/07 05:52:07;;;;;;;8.97;3.40;;;14.20;99.90;;;;;;5103753;27;20392;-77
2022/06/07 05:54:38;;;;;;;12.27;3.60;;;14.20;99.90;;;;;;5106980;27;20221;-77
2022/06/07 05:57:06;;;;;;;13.50;4.33;;;14.20;99.90;;;;;;5110251;27;20655;-78
2022/06/07 05:59:33;;;;;;;12.53;4.20;;;14.20;99.90;;;;;;5117521;27;20197;-76
2022/06/07 06:02:00;;;;;;;11.80;3.60;;;14.20;99.90;;;;;;5114146;27;20244;-77
2022/06/07 06:04:27;;;;;;;12.30;4.07;;;14.30;99.90;;;;;;5111489;27;20226;-77
2022/06/07 06:06:57;;;;;;;7.80;3.60;;;14.30;99.90;;;;;;5114601;27;20193;-76
2022/06/07 06:12:11;;;;;;;7.60;2.80;;;14.30;99.90;;;;;;5110092;28;20561;-77
2022/06/07 06:14:38;;;;;;;10.73;3.30;;;14.50;99.90;;;;;;5111154;27;20247;-77
2022/06/07 06:17:06;;;;;;;8.20;2.77;;;14.60;99.90;;;;;;5111700;27;20225;-77
2022/06/07 06:19:33;;;;;;;5.43;2.47;;;14.60;99.90;;;;;;5116325;27;20201;-77
2022/06/07 06:22:00;;;;;;;6.90;2.37;;;14.70;99.90;;;;;;5117414;27;20200;-77
2022/06/07 06:24:27;;;;;;;7.40;2.60;;;14.80;99.90;;;;;;5111449;27;20196;-77
2022/06/07 06:26:54;;;;;;;5.63;2.60;;;15.00;99.90;;;;;;5119383;27;20570;-77
2022/06/07 06:29:24;;;;;;;5.93;2.90;;;15.00;99.90;;;;;;5110572;28;20360;-77
2022/06/07 06:31:51;;;;;;;9.20;3.30;;;15.10;99.90;;;;;;5113625;27;20229;-76
2022/06/07 06:34:19;;;;;;;7.73;2.97;;;15.10;99.90;;;;;;5113336;27;20295;-77
2022/06/07 06:36:47;;;;;;;10.13;2.97;;;15.10;99.90;;;;;;5110925;28;20198;-77
2022/06/07 06:39:15;;;;;;;7.97;2.77;;;15.20;99.90;;;;;;5109739;28;20209;-77
2022/06/07 06:41:45;;;;;;;8.20;2.67;;;15.20;99.90;;;;;;5113639;27;20252;-76
2022/06/07 06:44:12;;;;;;;9.00;3.20;;;15.30;99.90;;;;;;5110238;27;20221;-76
2022/06/07 06:46:42;;;;;;;7.07;2.60;;;15.40;99.90;;;;;;5110197;27;20225;-76
2022/06/07 06:49:13;;;;;;;6.23;3.10;;;15.60;99.90;;;;;;5111044;28;20276;-76
2022/06/07 06:51:42;;;;;;;6.27;3.00;;;15.80;99.90;;;;;;5119309;27;20217;-77
2022/06/07 06:54:11;;;;;;;5.83;2.37;;;16.00;99.90;;;;;;5117199;27;20213;-77
2022/06/07 06:56:38;;;;;;;5.97;2.73;;;16.10;99.90;;;;;;5097535;28;20216;-76
2022/06/07 06:59:05;;;;;;;7.77;3.20;;;16.30;99.90;;;;;;5110485;28;20289;-76
2022/06/07 07:01:36;;;;;;;7.03;2.60;;;16.40;99.90;;;;;;5111907;28;20298;-76
2022/06/07 07:04:07;;;;;;;7.40;2.73;;;16.20;99.90;;;;;;5121157;27;20209;-76
2022/06/07 07:06:34;;;;;;;10.60;2.60;;;16.20;99.90;;;;;;5109468;28;20300;-76
2022/06/07 07:09:02;;;;;;;7.80;2.57;;;16.00;99.90;;;;;;5110955;28;20204;-76
2022/06/07 07:11:32;;;;;;;6.27;2.30;;;15.70;99.90;;;;;;5110865;28;20569;-76
2022/06/07 07:14:00;;;;;;;7.53;2.30;;;15.50;99.90;;;;;;5113757;28;20363;-76
2022/06/07 07:16:29;;;;;;;8.43;2.93;;;15.30;99.90;;;;;;5116491;27;20259;-76
2022/06/07 07:18:56;;;;;;;7.50;2.90;;;15.50;99.90;;;;;;5114954;28;20233;-76
2022/06/07 07:21:26;;;;;;;7.10;3.17;;;15.60;99.90;;;;;;5114840;28;20233;-76
2022/06/07 07:23:53;;;;;;;7.07;2.90;;;15.90;99.90;;;;;;5113770;28;20665;-76
2022/06/07 07:26:25;;;;;;;8.40;3.33;;;16.10;99.90;;;;;;5114219;27;20284;-77
2022/06/07 07:28:53;;;;;;;7.50;3.10;;;16.10;99.90;;;;;;5113629;28;20374;-76
2022/06/07 07:31:22;;;;;;;11.63;3.13;;;16.00;99.90;;;;;;5113601;27;20228;-76
2022/06/07 07:33:50;;;;;;;10.53;3.27;;;16.00;99.90;;;;;;5115526;27;20284;-77
2022/06/07 07:36:18;;;;;;;7.00;2.80;;;16.10;99.90;;;;;;5113853;28;20248;-76
2022/06/07 07:38:47;;;;;;;8.18;2.92;;;16.30;99.90;;;;;;5113296;28;20198;-76
2022/06/07 07:41:18;;;;;;;10.43;4.37;;;16.30;99.90;;;;;;5114184;28;20236;-76
2022/06/07 07:43:46;;;;;;;8.93;3.57;;;16.30;99.90;;;;;;5113448;28;20204;-77
2022/06/07 07:46:13;;;;;;;6.70;2.30;;;16.50;99.90;;;;;;5117212;27;20204;-77
2022/06/07 07:48:40;;;;;;;5.97;2.58;;;16.80;99.90;;;;;;5116659;27;20209;-77
2022/06/07 07:51:11;;;;;;;6.57;2.35;;;17.70;99.90;;;;;;5125593;27;20227;-77
2022/06/07 07:53:37;;;;;;;5.22;1.95;;;18.00;99.90;;;;;;5116506;27;20198;-78
2022/06/07 07:56:08;;;;;;;7.38;2.22;;;18.20;99.90;;;;;;5121504;27;20695;-77
2022/06/07 07:58:35;;;;;;;9.25;2.22;;;18.40;99.90;;;;;;5121297;27;20197;-77
2022/06/07 08:01:08;;;;;;;7.32;1.95;;;18.70;99.90;;;;;;5121639;27;20300;-77
2022/06/07 08:03:37;;;;;;;5.15;2.22;;;19.30;99.90;;;;;;5117376;27;20228;-77
2022/06/07 08:06:05;;;;;;;4.47;1.90;;;19.40;99.90;;;;;;5113877;27;20201;-77
2022/06/07 08:08:32;;;;;;;5.15;2.10;;;19.60;99.90;;;;;;5115948;27;20724;-77
2022/06/07 08:10:59;;;;;;;4.97;1.58;;;19.60;99.90;;;;;;5114020;27;20237;-76
2022/06/07 08:13:27;;;;;;;7.15;1.90;;;19.70;99.90;;;;;;5113521;28;20304;-77
2022/06/07 08:15:54;;;;;;;4.93;1.45;;;20.20;99.90;;;;;;5115904;27;20229;-77
2022/06/07 08:18:23;;;;;;;4.60;1.83;;;21.00;99.90;;;;;;5114220;27;20293;-77
2022/06/07 08:20:50;;;;;;;4.93;1.73;;;22.20;99.90;;;;;;5112261;27;20207;-77
2022/06/07 08:23:18;;;;;;;4.60;1.55;;;22.90;99.90;;;;;;5113647;27;20284;-77
2022/06/07 08:25:45;;;;;;;6.55;1.88;;;22.40;99.90;;;;;;5115510;27;20193;-77
2022/06/07 08:28:12;;;;;;;5.88;1.35;;;22.40;99.90;;;;;;5113780;27;20676;-77
2022/06/07 08:30:45;;;;;;;7.22;2.38;;;22.10;99.90;;;;;;5115897;27;20233;-77
2022/06/07 08:38:41;;;;;;;6.10;1.70;;;19.70;99.90;;;;;;5112921;28;20714;-77
2022/06/07 08:41:09;;;;;;;7.53;1.73;;;20.40;99.90;;;;;;5116114;27;20198;-77
2022/06/07 08:43:36;;;;;;;6.40;1.67;;;22.50;99.90;;;;;;5113832;27;20314;-77
2022/06/07 08:46:04;;;;;;;8.15;1.35;;;24.10;99.90;;;;;;5112343;27;20225;-77
2022/06/07 08:48:40;;;;;;;5.47;1.52;;;23.60;99.90;;;;;;5111860;27;20233;-77
2022/06/07 08:51:17;;;;;;;5.50;1.65;;;22.00;99.90;;;;;;5112653;28;20740;-77
2022/06/07 08:53:50;;;;;;;7.15;1.60;;;22.40;99.90;;;;;;5112537;27;20241;-77
2022/06/07 08:56:19;;;;;;;5.82;1.40;;;23.30;99.90;;;;;;5112230;27;20201;-78
2022/06/07 08:58:49;;;;;;;6.15;1.77;;;23.20;99.90;;;;;;5112789;28;20284;-77
2022/06/07 09:01:28;;;;;;;5.15;1.33;;;23.60;99.90;;;;;;5115144;27;20205;-77
2022/06/07 09:04:07;;;;;;;6.88;1.38;;;24.30;99.90;;;;;;5113648;27;20197;-77
2022/06/07 09:06:37;;;;;;;6.13;1.65;;;24.20;99.90;;;;;;5110837;27;20284;-77
2022/06/07 09:09:05;;;;;;;4.97;1.60;;;23.90;99.90;;;;;;5116675;27;20661;-77
2022/06/07 09:14:30;;;;;;;7.28;1.50;;;26.30;99.90;;;;;;5111598;28;20200;-77
2022/06/07 09:16:59;;;;;;;7.03;1.70;;;26.30;99.90;;;;;;5117144;27;20324;-77
2022/06/07 09:19:29;;;;;;;4.40;1.13;;;25.90;99.90;;;;;;5115469;27;20307;-77
2022/06/07 09:21:59;;;;;;;4.88;1.25;;;24.40;99.90;;;;;;5121175;27;20281;-77
2022/06/07 09:24:31;;;;;;;9.25;1.55;;;23.30;99.90;;;;;;5119621;27;20254;-77
2022/06/07 09:27:15;;;;;;;5.80;1.52;;;22.30;99.90;;;;;;5121660;27;20678;-77
2022/06/07 09:29:49;;;;;;;5.15;1.30;;;21.50;99.90;;;;;;5117052;27;20236;-77
2022/06/07 09:32:20;;;;;;;3.53;1.38;;;21.50;99.90;;;;;;5116965;27;20249;-77
2022/06/07 09:35:02;;;;;;;4.20;1.10;;;21.70;99.90;;;;;;5110012;27;20189;-77
2022/06/07 09:37:33;;;;;;;5.13;1.30;;;21.70;99.90;;;;;;5117459;27;20198;-77
2022/06/07 09:40:17;;;;;;;6.13;1.23;;;22.00;99.90;;;;;;5121754;27;20200;-77
2022/06/07 09:42:51;;;;;;;7.00;1.42;;;21.70;99.90;;;;;;5121568;27;20285;-77
2022/06/07 09:45:24;;;;;;;5.70;1.48;;;21.50;99.90;;;;;;5122998;27;20663;-77
2022/06/07 09:47:53;;;;;;;7.95;2.67;;;21.30;99.90;;;;;;5112389;27;20285;-77
2022/06/07 09:50:25;;;;;;;10.70;1.58;;;21.30;99.90;;;;;;5118609;27;20198;-76
2022/06/07 09:52:57;;;;;;;4.18;1.25;;;21.80;99.90;;;;;;5121495;27;20387;-77
2022/06/07 09:55:31;;;;;;;4.72;1.20;;;22.70;99.90;;;;;;5118878;27;20194;-77
2022/06/07 09:58:26;;;;;;;4.75;1.17;;;22.50;99.90;;;;;;5113866;27;20652;-77
2022/06/07 10:01:01;;;;;;;6.55;1.17;;;23.30;99.90;;;;;;5119707;27;20292;-77
2022/06/07 10:03:40;;;;;;;7.35;1.40;;;23.00;99.90;;;;;;5121927;27;20220;-77
2022/06/07 10:06:21;;;;;;;6.90;1.30;;;23.20;99.90;;;;;;5119845;27;20233;-77
2022/06/07 10:08:59;;;;;;;6.38;1.33;;;23.40;99.90;;;;;;5108628;27;20614;-77
2022/06/07 10:11:34;;;;;;;4.03;1.38;;;23.50;99.90;;;;;;5111498;27;20636;-77
2022/06/07 10:14:21;;;;;;;4.53;1.30;;;23.00;99.90;;;;;;5110490;27;20268;-77
2022/06/07 10:17:01;;;;;;;5.20;1.13;;;23.00;99.90;;;;;;5113601;27;20265;-77
2022/06/07 10:19:46;;;;;;;5.88;1.40;;;24.10;99.90;;;;;;5113012;27;20200;-78
2022/06/07 10:22:25;;;;;;;3.67;1.20;;;24.30;99.90;;;;;;5112140;27;20280;-78
2022/06/07 10:25:01;;;;;;;3.00;1.05;;;25.30;99.90;;;;;;5110592;28;20201;-78
2022/06/07 10:27:35;;;;;;;3.95;1.08;;;26.30;99.90;;;;;;5111144;28;20240;-78
2022/06/07 10:30:19;;;;;;;3.40;1.00;;;25.60;99.90;;;;;;5114660;27;20237;-78
2022/06/07 10:33:12;;;;;;;3.97;1.10;;;23.70;99.90;;;;;;5114320;27;20236;-77
2022/06/07 10:35:48;;;;;;;3.53;0.98;;;22.10;99.90;;;;;;5124137;27;20232;-78
2022/06/07 10:38:27;;;;;;;5.18;1.30;;;22.40;99.90;;;;;;5109844;28;20288;-78
2022/06/07 10:41:04;;;;;;;1.85;0.85;;;22.40;99.90;;;;;;5107599;27;20194;-77
2022/06/07 10:43:39;;;;;;;4.60;1.00;;;22.60;99.90;;;;;;5111293;27;20223;-78
2022/06/07 10:46:12;;;;;;;3.38;1.10;;;22.40;99.90;;;;;;5112989;27;20734;-78
2022/06/07 10:48:47;;;;;;;2.65;0.90;;;22.40;99.90;;;;;;5113147;28;20245;-77
2022/06/07 10:54:11;;;;;;;6.43;1.40;;;21.30;99.90;;;;;;5110176;27;20228;-77
2022/06/07 10:56:41;;;;;;;5.00;1.20;;;20.70;99.90;;;;;;5109019;28;20250;-77
2022/06/07 10:59:16;;;;;;;5.10;1.05;;;20.30;99.90;;;;;;5109405;28;20397;-77
2022/06/07 11:01:50;;;;;;;8.48;1.58;;;20.50;99.90;;;;;;5106113;28;20292;-77
2022/06/07 11:10:07;;;;;;;7.25;1.33;;;21.50;99.90;;;;;;5111446;28;20200;-77
2022/06/07 11:12:40;;;;;;;3.90;1.00;;;23.00;99.90;;;;;;5111726;28;20349;-77
2022/06/07 11:15:15;;;;;;;1.95;0.77;;;24.00;99.90;;;;;;5111133;28;20691;-77
2022/06/07 11:17:47;;;;;;;4.28;1.25;;;23.80;99.90;;;;;;5113238;28;20256;-78
2022/06/07 11:20:17;;;;;;;6.57;1.20;;;23.90;99.90;;;;;;5106270;28;20263;-77
2022/06/07 11:23:03;;;;;;;4.22;1.30;;;23.40;99.90;;;;;;5123366;28;20185;-77
2022/06/07 11:25:35;;;;;;;5.20;1.23;;;23.20;99.90;;;;;;5115718;27;20237;-78
2022/06/07 11:28:07;;;;;;;6.18;1.23;;;22.80;99.90;;;;;;5114768;28;22149;-78
2022/06/07 11:30:46;;;;;;;5.00;1.30;;;22.60;99.90;;;;;;5111149;27;20681;-78
2022/06/07 11:33:32;;;;;;;5.47;1.10;;;22.30;99.90;;;;;;5110009;28;20307;-78
2022/06/07 11:36:22;;;;;;;5.28;1.38;;;21.90;99.90;;;;;;5115064;27;20279;-78
2022/06/07 11:39:27;;;;;;;6.38;1.52;;;21.40;99.90;;;;;;5099524;28;20201;-77
2022/06/07 11:41:57;;;;;;;5.93;1.50;;;21.50;99.90;;;;;;5100666;28;20197;-78
2022/06/07 11:44:39;;;;;;;6.15;1.40;;;21.50;99.90;;;;;;5118473;27;20267;-78
2022/06/07 11:47:31;;;;;;;8.52;1.77;;;21.10;99.90;;;;;;5110541;28;20252;-77
2022/06/07 11:50:28;;;;;;;6.97;1.40;;;21.40;99.90;;;;;;5109405;28;20289;-78
2022/06/07 11:53:00;;;;;;;5.28;1.50;;;21.90;99.90;;;;;;5109206;28;20214;-77
2022/06/07 11:55:39;;;;;;;8.77;1.48;;;22.50;99.90;;;;;;5111652;28;20293;-78
2022/06/07 11:58:07;;;;;;;8.30;1.63;;;22.60;99.90;;;;;;5121580;27;21743;-77
2022/06/07 12:00:47;;;;;;;5.93;1.50;;;22.40;99.90;;;;;;5122159;27;20284;-78
2022/06/07 12:03:33;;;;;;;7.03;1.42;;;22.30;99.90;;;;;;5115904;27;20669;-77
2022/06/07 12:06:20;;;;;;;6.93;1.60;;;22.10;99.90;;;;;;5113775;27;20210;-77
2022/06/07 12:08:58;;;;;;;7.13;1.40;;;23.30;99.90;;;;;;5116032;27;20292;-77
2022/06/07 12:11:29;;;;;;;4.65;1.50;;;23.10;99.90;;;;;;5120690;27;20340;-78
2022/06/07 12:14:31;;;;;;;5.20;1.30;;;24.30;99.90;;;;;;5112746;27;20221;-78
2022/06/07 12:17:00;;;;;;;5.38;1.00;;;26.10;99.90;;;;;;5120128;27;20233;-78
2022/06/07 12:19:30;;;;;;;4.82;1.10;;;26.40;99.90;;;;;;5113522;28;20293;-78
2022/06/07 12:22:03;;;;;;;5.50;1.35;;;26.60;99.90;;;;;;5113955;27;20280;-78
2022/06/07 12:24:37;;;;;;;7.68;1.30;;;27.30;99.90;;;;;;5116079;27;20296;-78
2022/06/07 12:27:22;;;;;;;5.78;1.50;;;26.10;99.90;;;;;;5113583;28;20290;-78
2022/06/07 12:29:49;;;;;;;6.03;1.52;;;24.40;99.90;;;;;;5119723;27;20232;-77
2022/06/07 12:32:19;;;;;;;3.88;1.27;;;24.60;99.90;;;;;;5113195;28;20625;-78
2022/06/07 12:34:47;;;;;;;7.13;1.70;;;25.20;99.90;;;;;;5112907;27;20225;-78
2022/06/07 12:37:25;;;;;;;4.78;1.50;;;23.70;99.90;;;;;;5114846;27;20592;-78
2022/06/07 12:39:55;;;;;;;7.43;1.60;;;22.90;99.90;;;;;;5112485;27;20201;-78
2022/06/07 12:42:27;;;;;;;6.68;1.63;;;22.40;99.90;;;;;;5112563;28;20226;-78
2022/06/07 12:44:56;;;;;;;6.70;1.58;;;22.30;99.90;;;;;;5121863;27;20225;-77
2022/06/07 12:47:26;;;;;;;7.57;1.27;;;22.30;99.90;;;;;;5112814;27;20205;-78
2022/06/07 12:49:54;;;;;;;5.72;1.10;;;21.90;99.90;;;;;;5111670;28;20230;-78
2022/06/07 12:52:25;;;;;;;6.30;1.30;;;21.70;99.90;;;;;;5112421;28;20194;-77
2022/06/07 12:54:55;;;;;;;6.15;1.40;;;21.60;99.90;;;;;;5112813;28;20229;-77
2022/06/07 12:57:28;;;;;;;4.85;1.42;;;21.70;99.90;;;;;;5113277;28;20229;-77
2022/06/07 13:00:00;;;;;;;6.53;1.63;;;24.50;99.90;;;;;;5112324;27;20197;-78
2022/06/07 13:02:37;;;;;;;5.40;1.25;;;26.30;99.90;;;;;;5118658;27;20254;-77
2022/06/07 13:05:10;;;;;;;8.45;1.50;;;25.20;99.90;;;;;;5104106;28;20205;-77
2022/06/07 13:07:44;;;;;;;4.20;1.05;;;24.60;99.90;;;;;;5111012;28;20233;-77
2022/06/07 13:10:15;;;;;;;5.82;1.38;;;25.00;99.90;;;;;;5122256;27;20201;-78
2022/06/07 13:12:45;;;;;;;5.68;0.90;;;25.60;99.90;;;;;;5105071;27;20244;-78
2022/06/07 13:15:16;;;;;;;5.10;1.33;;;26.80;99.90;;;;;;5104701;28;20284;-78
2022/06/07 13:17:54;;;;;;;5.90;1.45;;;27.00;99.90;;;;;;5111709;27;20233;-78
2022/06/07 13:20:27;;;;;;;3.90;1.30;;;26.70;99.90;;;;;;5112634;27;20213;-78
2022/06/07 13:22:55;;;;;;;6.05;1.20;;;26.70;99.90;;;;;;5119886;27;20313;-78
2022/06/07 13:25:26;;;;;;;4.18;1.20;;;26.10;99.90;;;;;;5117949;27;20287;-78
2022/06/07 13:28:03;;;;;;;3.65;1.30;;;25.30;99.90;;;;;;5111375;28;20316;-78